Time;durP1;ratioP1;P1;durP2;ratioP2;P2;SDS_P1;SDS_P2;PMS_P1;PMS_P2;Temp;Humidity;BMP_temperature;BMP_pressure;BME280_temperature;BME280_humidity;BME280_pressure;Samples;Min_cycle;Max_cycle;Signal;HPM_P1;HPM_P2
2022/05/16 00:00:37;;;;;;;6.72;3.22;;;13.10;99.90;;;;;;5084663;28;20036;-78
2022/05/16 00:03:05;;;;;;;6.82;2.97;;;13.10;99.90;;;;;;5080384;28;20547;-78
2022/05/16 00:05:30;;;;;;;6.30;2.45;;;13.00;99.90;;;;;;5082495;28;20051;-77
2022/05/16 00:07:56;;;;;;;10.07;3.50;;;13.00;99.90;;;;;;5081510;28;20041;-77
2022/05/16 00:10:23;;;;;;;4.93;2.95;;;13.00;99.90;;;;;;5078238;28;20063;-78
2022/05/16 00:12:49;;;;;;;7.88;3.50;;;13.00;99.90;;;;;;5060624;28;20037;-78
2022/05/16 00:15:16;;;;;;;4.05;2.35;;;13.00;99.90;;;;;;5088778;28;20050;-77
2022/05/16 00:17:42;;;;;;;6.28;2.95;;;13.00;99.90;;;;;;5083285;28;20297;-78
2022/05/16 00:20:09;;;;;;;6.82;3.60;;;13.00;99.90;;;;;;5081642;28;20071;-77
2022/05/16 00:22:35;;;;;;;4.20;2.22;;;13.00;99.90;;;;;;5076120;28;20036;-78
2022/05/16 00:25:04;;;;;;;7.57;3.40;;;13.00;99.90;;;;;;5079217;28;20032;-78
2022/05/16 00:27:34;;;;;;;4.38;2.50;;;13.00;99.90;;;;;;5084724;28;20060;-78
2022/05/16 00:30:00;;;;;;;8.02;3.10;;;13.00;99.90;;;;;;5082775;28;20044;-78
2022/05/16 00:32:26;;;;;;;5.35;2.55;;;13.00;99.90;;;;;;5080584;28;20040;-78
2022/05/16 00:34:51;;;;;;;5.82;2.65;;;13.00;99.90;;;;;;5078167;28;20033;-78
2022/05/16 00:37:17;;;;;;;6.13;2.60;;;12.90;99.90;;;;;;5087698;28;20868;-78
2022/05/16 00:39:42;;;;;;;4.97;2.28;;;12.90;99.90;;;;;;5077286;28;20483;-78
2022/05/16 00:42:12;;;;;;;8.48;2.75;;;12.90;99.90;;;;;;5082159;28;20106;-78
2022/05/16 00:44:38;;;;;;;4.70;2.40;;;12.90;99.90;;;;;;5083820;28;20048;-78
2022/05/16 00:47:04;;;;;;;4.30;2.38;;;12.90;99.90;;;;;;5081529;28;20045;-78
2022/05/16 00:49:34;;;;;;;7.65;2.85;;;12.90;99.90;;;;;;5083408;28;20040;-78
2022/05/16 00:52:03;;;;;;;8.80;2.85;;;12.90;99.90;;;;;;5077365;28;20068;-78
2022/05/16 00:54:49;;;;;;;5.72;2.60;;;12.90;99.90;;;;;;5075710;28;20512;-78
2022/05/16 00:57:19;;;;;;;7.72;3.13;;;12.90;99.90;;;;;;5083241;28;20115;-78
2022/05/16 01:00:15;;;;;;;6.93;2.05;;;12.90;99.90;;;;;;5075143;28;20032;-77
2022/05/16 01:05:32;;;;;;;5.05;2.67;;;12.90;99.90;;;;;;5078085;28;20048;-78
2022/05/16 01:08:01;;;;;;;6.57;2.33;;;12.80;99.90;;;;;;5078877;28;20505;-78
2022/05/16 01:10:27;;;;;;;5.32;2.08;;;12.80;99.90;;;;;;5085935;28;20086;-78
2022/05/16 01:12:53;;;;;;;6.20;2.33;;;12.80;99.90;;;;;;5080085;28;20059;-77
2022/05/16 01:15:33;;;;;;;5.93;2.05;;;12.70;99.90;;;;;;5080633;28;20028;-77
2022/05/16 01:17:59;;;;;;;7.47;2.72;;;12.70;99.90;;;;;;5081748;28;20044;-78
2022/05/16 01:20:37;;;;;;;5.72;2.00;;;12.70;99.90;;;;;;5083492;28;20047;-79
2022/05/16 01:23:02;;;;;;;3.33;1.15;;;12.70;99.90;;;;;;5067943;28;20039;-79
2022/05/16 01:25:29;;;;;;;4.63;2.65;;;12.60;99.90;;;;;;5061849;28;20085;-79
2022/05/16 01:28:04;;;;;;;3.25;1.17;;;12.60;99.90;;;;;;5076154;28;20145;-78
2022/05/16 01:30:42;;;;;;;5.70;2.40;;;12.70;99.90;;;;;;5063864;28;20048;-78
2022/05/16 01:33:07;;;;;;;4.38;1.38;;;12.70;99.90;;;;;;5082843;28;20489;-79
2022/05/16 01:35:33;;;;;;;2.50;1.55;;;12.60;99.90;;;;;;5081581;28;20036;-79
2022/05/16 01:40:45;;;;;;;4.72;1.70;;;12.60;99.90;;;;;;5084335;28;20049;-77
2022/05/16 01:43:12;;;;;;;3.63;1.02;;;12.60;99.90;;;;;;5088834;28;20379;-78
2022/05/16 01:45:39;;;;;;;3.20;1.13;;;12.60;99.90;;;;;;5079769;28;20039;-78
2022/05/16 01:48:05;;;;;;;6.00;1.27;;;12.60;99.90;;;;;;5078416;28;20054;-79
2022/05/16 01:50:31;;;;;;;5.80;1.92;;;12.60;99.90;;;;;;5085462;28;20053;-79
2022/05/16 01:52:56;;;;;;;2.75;1.38;;;12.60;99.90;;;;;;5071120;28;20041;-78
2022/05/16 01:55:22;;;;;;;8.50;1.73;;;12.60;99.90;;;;;;5082103;28;20077;-79
2022/05/16 01:57:47;;;;;;;6.60;2.38;;;12.50;99.90;;;;;;5080618;28;20036;-78
2022/05/16 02:00:15;;;;;;;4.68;1.02;;;12.50;99.90;;;;;;5081985;28;20398;-78
2022/05/16 02:02:42;;;;;;;3.15;1.30;;;12.50;99.90;;;;;;5079653;28;20093;-78
2022/05/16 02:05:15;;;;;;;6.80;2.30;;;12.40;99.90;;;;;;5075412;28;20046;-79
2022/05/16 02:07:41;;;;;;;3.22;0.95;;;12.40;99.90;;;;;;5074054;28;20282;-79
2022/05/16 02:10:08;;;;;;;4.70;1.95;;;12.40;99.90;;;;;;5081736;28;20044;-78
2022/05/16 02:12:35;;;;;;;4.95;1.23;;;12.30;99.90;;;;;;5081356;28;20051;-78
2022/05/16 02:15:02;;;;;;;3.42;1.00;;;12.30;99.90;;;;;;5063092;28;20104;-78
2022/05/16 02:17:27;;;;;;;3.88;1.67;;;12.30;99.90;;;;;;5064914;28;20084;-78
2022/05/16 02:19:53;;;;;;;5.63;0.98;;;12.30;99.90;;;;;;5082211;28;20055;-78
2022/05/16 02:25:04;;;;;;;3.50;0.98;;;12.30;99.90;;;;;;5084177;28;20048;-78
2022/05/16 02:27:29;;;;;;;3.33;1.25;;;12.20;99.90;;;;;;5093672;28;20079;-78
2022/05/16 02:29:55;;;;;;;4.20;1.23;;;12.20;99.90;;;;;;5100741;28;20105;-78
2022/05/16 02:32:20;;;;;;;4.97;0.90;;;12.20;99.90;;;;;;5094009;28;20035;-78
2022/05/16 02:34:46;;;;;;;3.10;0.90;;;12.10;99.90;;;;;;5092045;28;20036;-78
2022/05/16 02:37:12;;;;;;;2.33;1.00;;;12.10;99.90;;;;;;5092527;28;20044;-78
2022/05/16 02:39:38;;;;;;;4.15;1.00;;;12.00;99.90;;;;;;5089027;28;20528;-78
2022/05/16 02:42:04;;;;;;;5.57;0.98;;;11.90;99.90;;;;;;5088133;28;20044;-78
2022/05/16 02:44:30;;;;;;;2.95;1.08;;;11.90;99.90;;;;;;5079543;28;20052;-78
2022/05/16 02:46:55;;;;;;;3.97;0.68;;;11.80;99.90;;;;;;5089248;28;20103;-78
2022/05/16 02:49:21;;;;;;;3.28;1.10;;;11.70;99.90;;;;;;5086844;28;20505;-78
2022/05/16 02:51:47;;;;;;;4.63;1.27;;;11.70;99.90;;;;;;5084575;28;20416;-78
2022/05/16 02:54:13;;;;;;;4.07;0.95;;;11.60;99.90;;;;;;5087661;28;20055;-78
2022/05/16 02:56:39;;;;;;;2.75;0.93;;;11.60;99.90;;;;;;5085243;28;20032;-78
2022/05/16 02:59:05;;;;;;;4.50;0.93;;;11.50;99.90;;;;;;5091457;28;20040;-78
2022/05/16 03:01:34;;;;;;;5.07;0.98;;;11.50;99.90;;;;;;5089899;28;20055;-78
2022/05/16 03:04:00;;;;;;;4.32;0.90;;;11.60;99.90;;;;;;5092037;28;20055;-78
2022/05/16 03:06:26;;;;;;;2.28;0.90;;;11.50;99.90;;;;;;5072887;28;20052;-78
2022/05/16 03:08:51;;;;;;;2.20;0.98;;;11.50;99.90;;;;;;5089956;28;20044;-78
2022/05/16 03:11:17;;;;;;;1.05;0.50;;;11.50;99.90;;;;;;5092126;28;20406;-78
2022/05/16 03:13:42;;;;;;;2.08;0.80;;;11.50;99.90;;;;;;5091033;28;20044;-78
2022/05/16 03:16:08;;;;;;;4.60;1.42;;;11.50;99.90;;;;;;5091890;28;20114;-78
2022/05/16 03:18:34;;;;;;;4.90;0.85;;;11.50;99.90;;;;;;5092990;28;20036;-78
2022/05/16 03:20:59;;;;;;;2.10;0.63;;;11.50;99.90;;;;;;5086439;28;20523;-78
2022/05/16 03:23:25;;;;;;;4.25;1.27;;;11.50;99.90;;;;;;5075864;28;20029;-78
2022/05/16 03:25:51;;;;;;;5.68;1.55;;;11.50;99.90;;;;;;5090128;28;20044;-78
2022/05/16 03:28:17;;;;;;;7.80;1.05;;;11.50;99.90;;;;;;5078078;28;20048;-78
2022/05/16 03:30:43;;;;;;;3.95;1.02;;;11.50;99.90;;;;;;5091996;28;20036;-78
2022/05/16 03:33:09;;;;;;;3.88;0.90;;;11.50;99.90;;;;;;5092216;28;20130;-78
2022/05/16 03:35:35;;;;;;;2.60;1.02;;;11.50;99.90;;;;;;5094587;28;20047;-77
2022/05/16 03:38:02;;;;;;;5.13;0.73;;;11.50;99.90;;;;;;5082595;28;20031;-77
2022/05/16 03:40:42;;;;;;;2.63;0.88;;;11.40;99.90;;;;;;5094205;28;21286;-78
2022/05/16 03:43:13;;;;;;;5.55;0.93;;;11.40;99.90;;;;;;5094723;28;20042;-78
2022/05/16 03:45:40;;;;;;;2.42;0.77;;;11.40;99.90;;;;;;5094718;28;20434;-77
2022/05/16 03:48:06;;;;;;;4.47;1.20;;;11.40;99.90;;;;;;5080551;28;20478;-77
2022/05/16 03:50:32;;;;;;;5.50;1.30;;;11.40;99.90;;;;;;5085997;28;20475;-78
2022/05/16 03:52:59;;;;;;;3.20;0.75;;;11.40;99.90;;;;;;5091019;28;20085;-78
2022/05/16 03:55:27;;;;;;;5.13;1.23;;;11.40;99.90;;;;;;5087849;28;20490;-78
2022/05/16 03:57:52;;;;;;;3.30;0.65;;;11.40;99.90;;;;;;5094279;28;20085;-78
2022/05/16 04:00:19;;;;;;;2.25;1.23;;;11.40;99.90;;;;;;5094231;28;20445;-78
2022/05/16 04:02:45;;;;;;;4.10;1.20;;;11.50;99.90;;;;;;5080164;28;20082;-78
2022/05/16 04:05:18;;;;;;;2.40;0.55;;;11.50;99.90;;;;;;5082370;28;20041;-78
2022/05/16 04:07:44;;;;;;;2.42;1.05;;;11.50;99.90;;;;;;5093578;28;20554;-77
2022/05/16 04:10:11;;;;;;;2.63;1.10;;;11.50;99.90;;;;;;5095251;28;20075;-78
2022/05/16 04:12:37;;;;;;;2.90;0.60;;;11.60;99.90;;;;;;5093350;28;20044;-78
2022/05/16 04:15:04;;;;;;;3.58;1.42;;;11.60;99.90;;;;;;5085815;28;20040;-78
2022/05/16 04:17:29;;;;;;;4.95;1.42;;;11.70;99.90;;;;;;5090860;28;20123;-78
2022/05/16 04:19:55;;;;;;;1.92;0.88;;;11.70;99.90;;;;;;5082580;28;20174;-78
2022/05/16 04:22:21;;;;;;;3.80;0.60;;;11.80;99.90;;;;;;5089321;28;20040;-78
2022/05/16 04:24:46;;;;;;;3.97;1.45;;;11.90;99.90;;;;;;5091952;28;20055;-78
2022/05/16 04:27:12;;;;;;;3.78;1.23;;;11.90;99.90;;;;;;5090486;28;20044;-78
2022/05/16 04:29:37;;;;;;;3.33;0.65;;;12.00;99.90;;;;;;5093589;28;20046;-78
2022/05/16 04:32:04;;;;;;;3.55;1.25;;;12.10;99.90;;;;;;5092324;28;20482;-78
2022/05/16 04:34:29;;;;;;;3.75;1.02;;;12.20;99.90;;;;;;5079708;28;20454;-78
2022/05/16 04:36:55;;;;;;;2.95;1.17;;;12.30;99.90;;;;;;5087973;28;20079;-77
2022/05/16 04:39:20;;;;;;;2.45;0.77;;;12.30;99.90;;;;;;5092997;28;20036;-77
2022/05/16 04:44:36;;;;;;;3.35;0.88;;;12.50;99.90;;;;;;5092823;28;20209;-78
2022/05/16 04:47:02;;;;;;;3.00;1.00;;;12.50;99.90;;;;;;5080984;28;20398;-77
2022/05/16 04:49:28;;;;;;;3.97;0.93;;;12.60;99.90;;;;;;5083961;28;20051;-77
2022/05/16 04:51:53;;;;;;;2.63;1.10;;;12.60;99.90;;;;;;5087223;28;20046;-77
2022/05/16 04:54:19;;;;;;;3.40;1.30;;;12.60;99.90;;;;;;5094572;28;20054;-78
2022/05/16 04:56:46;;;;;;;3.13;1.23;;;12.70;99.90;;;;;;5096749;28;20088;-78
2022/05/16 04:59:13;;;;;;;3.45;0.90;;;12.70;99.90;;;;;;5089635;28;20040;-77
2022/05/16 05:01:38;;;;;;;5.07;1.35;;;12.70;99.90;;;;;;5087693;28;20505;-78
2022/05/16 05:04:04;;;;;;;2.47;0.98;;;12.60;99.90;;;;;;5094287;28;20056;-78
2022/05/16 05:06:30;;;;;;;4.28;0.70;;;12.60;99.90;;;;;;5092804;28;20047;-77
2022/05/16 05:08:56;;;;;;;2.83;0.82;;;12.60;99.90;;;;;;5091015;28;20035;-77
2022/05/16 05:16:51;;;;;;;2.95;0.77;;;12.60;99.90;;;;;;5075138;28;20040;-77
2022/05/16 05:19:17;;;;;;;2.90;1.33;;;12.60;99.90;;;;;;5092288;28;20428;-77
2022/05/16 05:21:43;;;;;;;3.33;1.30;;;12.60;99.90;;;;;;5093411;28;20054;-77
2022/05/16 05:24:09;;;;;;;3.78;0.98;;;12.60;99.90;;;;;;5092373;28;20135;-77
2022/05/16 05:26:35;;;;;;;3.53;1.25;;;12.60;99.90;;;;;;5074917;28;20043;-78
2022/05/16 05:29:01;;;;;;;3.88;1.20;;;12.70;99.90;;;;;;5084194;28;20040;-77
2022/05/16 05:31:26;;;;;;;5.78;1.05;;;12.80;99.90;;;;;;5082358;28;20035;-77
2022/05/16 05:33:55;;;;;;;4.65;1.00;;;12.90;99.90;;;;;;5091883;28;20044;-77
2022/05/16 05:36:21;;;;;;;3.53;0.90;;;13.10;99.90;;;;;;5091937;28;20530;-77
2022/05/16 05:38:51;;;;;;;2.28;1.10;;;13.20;99.90;;;;;;5092841;28;20136;-77
2022/05/16 05:41:18;;;;;;;5.25;1.30;;;13.50;99.90;;;;;;5091234;28;20046;-77
2022/05/16 05:43:44;;;;;;;2.67;1.40;;;13.60;99.90;;;;;;5084168;28;20052;-77
2022/05/16 05:46:09;;;;;;;5.30;1.95;;;13.70;99.90;;;;;;5081717;28;20032;-78
2022/05/16 05:48:35;;;;;;;4.63;1.02;;;13.80;99.90;;;;;;5091487;28;20098;-77
2022/05/16 05:51:00;;;;;;;5.15;1.35;;;13.90;99.90;;;;;;5091542;28;20104;-77
2022/05/16 05:53:26;;;;;;;4.22;1.73;;;13.90;99.90;;;;;;5090950;28;20085;-77
2022/05/16 05:55:52;;;;;;;4.38;1.25;;;13.90;99.90;;;;;;5074388;28;20028;-77
2022/05/16 05:58:18;;;;;;;3.60;1.08;;;13.90;99.90;;;;;;5087224;28;20041;-78
2022/05/16 06:00:44;;;;;;;4.97;1.45;;;14.00;99.90;;;;;;5071109;28;20037;-77
2022/05/16 06:03:10;;;;;;;5.28;1.33;;;14.00;99.90;;;;;;5072089;28;20506;-77
2022/05/16 06:05:36;;;;;;;3.22;1.77;;;14.00;99.90;;;;;;5071043;28;20422;-77
2022/05/16 06:08:02;;;;;;;3.00;1.23;;;14.10;99.90;;;;;;5070894;28;20040;-77
2022/05/16 06:10:27;;;;;;;3.67;1.17;;;14.10;99.90;;;;;;5070726;28;20036;-77
2022/05/16 06:12:54;;;;;;;3.95;1.92;;;14.20;99.90;;;;;;5071731;28;20048;-77
2022/05/16 06:15:19;;;;;;;3.10;1.20;;;14.40;99.90;;;;;;5070629;28;20051;-77
2022/05/16 06:17:46;;;;;;;5.95;1.25;;;14.50;99.90;;;;;;5073585;28;20031;-77
2022/05/16 06:20:14;;;;;;;3.88;1.42;;;14.60;99.90;;;;;;5090697;28;20040;-77
2022/05/16 06:22:40;;;;;;;6.25;1.33;;;14.80;99.90;;;;;;5092363;28;20036;-77
2022/05/16 06:27:53;;;;;;;6.40;1.65;;;14.90;99.90;;;;;;5090803;28;20135;-77
2022/05/16 06:30:19;;;;;;;4.82;1.80;;;14.90;99.90;;;;;;5080907;28;20197;-77
2022/05/16 06:32:46;;;;;;;7.53;2.53;;;14.90;99.90;;;;;;5084372;28;20034;-77
2022/05/16 06:35:12;;;;;;;4.85;1.50;;;15.00;99.90;;;;;;5091836;28;20043;-77
2022/05/16 06:37:38;;;;;;;3.90;2.03;;;15.00;99.90;;;;;;5090590;28;20398;-77
2022/05/16 06:40:04;;;;;;;5.78;2.17;;;15.10;99.90;;;;;;5090611;28;20063;-77
2022/05/16 06:42:30;;;;;;;3.38;1.38;;;15.10;99.90;;;;;;5090013;28;20040;-77
2022/05/16 06:44:55;;;;;;;5.30;1.50;;;15.10;99.90;;;;;;5073347;28;20036;-77
2022/05/16 06:47:21;;;;;;;4.05;0.90;;;15.10;99.90;;;;;;5088532;28;20032;-77
2022/05/16 06:49:47;;;;;;;4.47;2.30;;;15.20;99.90;;;;;;5078496;28;20063;-77
2022/05/16 06:52:13;;;;;;;5.55;1.40;;;15.40;99.90;;;;;;5071694;28;20090;-77
2022/05/16 06:54:38;;;;;;;3.08;1.08;;;15.80;99.90;;;;;;5070851;28;20044;-77
2022/05/16 06:57:04;;;;;;;5.95;1.65;;;16.20;99.90;;;;;;5072498;28;20122;-77
2022/05/16 06:59:30;;;;;;;5.78;1.80;;;16.50;99.90;;;;;;5072221;28;20032;-78
2022/05/16 07:01:56;;;;;;;6.10;1.52;;;16.80;99.90;;;;;;5085548;28;20037;-78
2022/05/16 07:04:21;;;;;;;4.55;1.30;;;17.10;99.90;;;;;;5070517;28;20052;-77
2022/05/16 07:06:47;;;;;;;3.83;1.35;;;17.40;99.90;;;;;;5070234;28;20048;-77
2022/05/16 07:09:13;;;;;;;4.97;1.15;;;17.60;99.90;;;;;;5069832;28;20059;-78
2022/05/16 07:11:38;;;;;;;3.60;1.15;;;17.80;99.90;;;;;;5069981;28;20048;-77
2022/05/16 07:14:04;;;;;;;9.07;3.53;;;17.90;99.90;;;;;;5070578;28;20032;-78
2022/05/16 07:16:29;;;;;;;3.47;1.05;;;18.10;99.70;;;;;;5085378;28;20503;-77
2022/05/16 07:18:55;;;;;;;6.25;2.75;;;18.10;99.20;;;;;;5070140;28;20541;-78
2022/05/16 07:21:20;;;;;;;5.30;1.55;;;18.20;98.60;;;;;;5069666;28;20036;-77
2022/05/16 07:23:46;;;;;;;5.35;1.10;;;18.40;98.00;;;;;;5069641;28;20036;-77
2022/05/16 07:28:56;;;;;;;3.08;1.80;;;18.90;96.20;;;;;;5069698;28;20495;-77
2022/05/16 07:31:22;;;;;;;5.03;1.85;;;19.10;95.70;;;;;;5071267;28;20040;-78
2022/05/16 07:33:47;;;;;;;7.18;1.60;;;19.30;95.30;;;;;;5069413;28;20098;-78
2022/05/16 07:36:13;;;;;;;3.65;1.30;;;19.50;94.50;;;;;;5071112;28;20102;-77
2022/05/16 07:38:39;;;;;;;4.78;1.60;;;19.70;92.80;;;;;;5071051;28;20048;-78
2022/05/16 07:41:05;;;;;;;3.40;1.20;;;19.90;91.50;;;;;;5069935;28;20076;-78
2022/05/16 07:43:30;;;;;;;3.78;1.05;;;20.10;90.70;;;;;;5070923;28;20051;-78
2022/05/16 07:45:56;;;;;;;3.97;1.58;;;20.30;89.30;;;;;;5071189;28;20102;-78
2022/05/16 07:48:22;;;;;;;2.42;1.50;;;20.50;88.00;;;;;;5071872;28;20539;-78
2022/05/16 07:50:48;;;;;;;4.03;1.27;;;20.70;85.70;;;;;;5078836;28;20039;-78
2022/05/16 07:53:15;;;;;;;5.28;1.73;;;20.60;84.20;;;;;;5087505;28;20040;-78
2022/05/16 07:55:53;;;;;;;6.68;1.45;;;20.60;83.70;;;;;;5090512;28;20089;-78
2022/05/16 07:58:22;;;;;;;3.78;1.35;;;20.60;82.50;;;;;;5090497;28;20120;-77
2022/05/16 08:00:49;;;;;;;3.22;1.33;;;20.70;84.40;;;;;;5089921;28;20048;-78
2022/05/16 08:03:16;;;;;;;3.58;1.20;;;20.80;83.70;;;;;;5075042;28;20081;-78
2022/05/16 08:05:42;;;;;;;5.68;1.42;;;20.90;82.30;;;;;;5093448;28;20520;-77
2022/05/16 08:11:00;;;;;;;5.82;1.88;;;21.30;83.30;;;;;;5073786;28;20067;-78
2022/05/16 08:13:27;;;;;;;3.45;1.05;;;21.50;81.20;;;;;;5072904;28;20118;-78
2022/05/16 08:15:53;;;;;;;3.67;1.00;;;21.40;79.10;;;;;;5075106;28;20040;-78
2022/05/16 08:18:19;;;;;;;3.05;1.20;;;21.20;78.90;;;;;;5074626;28;20063;-77
2022/05/16 08:20:46;;;;;;;6.70;1.33;;;21.20;79.00;;;;;;5074567;28;20045;-78
2022/05/16 08:23:15;;;;;;;3.53;1.60;;;21.30;79.60;;;;;;5072841;28;20072;-77
2022/05/16 08:25:44;;;;;;;6.72;1.33;;;21.60;78.80;;;;;;5083810;28;20060;-78
2022/05/16 08:28:10;;;;;;;4.25;1.67;;;21.60;78.30;;;;;;5093580;28;20028;-78
2022/05/16 08:30:35;;;;;;;4.43;1.10;;;21.70;77.30;;;;;;5094703;28;20478;-78
2022/05/16 08:33:01;;;;;;;5.32;1.33;;;22.00;76.10;;;;;;5094215;28;20040;-78
2022/05/16 08:35:28;;;;;;;3.80;1.23;;;22.20;75.10;;;;;;5094672;28;20292;-78
2022/05/16 08:40:52;;;;;;;6.03;2.45;;;22.50;73.20;;;;;;5091137;28;20052;-78
2022/05/16 08:43:31;;;;;;;5.50;1.70;;;22.60;72.20;;;;;;5081873;28;20123;-78
2022/05/16 08:46:05;;;;;;;6.35;1.70;;;22.70;72.60;;;;;;5074059;28;20063;-78
2022/05/16 08:48:36;;;;;;;5.15;1.90;;;22.80;70.10;;;;;;5073075;28;20072;-78
2022/05/16 08:51:19;;;;;;;4.82;1.45;;;22.80;70.10;;;;;;5072993;28;20090;-78
2022/05/16 08:53:50;;;;;;;3.78;1.48;;;22.70;69.20;;;;;;5072704;28;20045;-78
2022/05/16 08:56:19;;;;;;;9.35;1.92;;;22.60;70.30;;;;;;5056075;28;20505;-78
2022/05/16 08:59:08;;;;;;;4.05;1.25;;;22.60;70.00;;;;;;5089087;28;20040;-78
2022/05/16 09:01:44;;;;;;;5.93;1.52;;;22.70;69.40;;;;;;5086985;28;20044;-78
2022/05/16 09:04:18;;;;;;;5.25;2.05;;;23.00;69.10;;;;;;5093935;28;20040;-78
2022/05/16 09:07:07;;;;;;;8.82;2.28;;;23.00;68.20;;;;;;5093081;28;20052;-78
2022/05/16 09:10:03;;;;;;;6.13;1.10;;;23.20;68.70;;;;;;5092343;28;20044;-79
2022/05/16 09:12:34;;;;;;;4.55;0.93;;;23.40;67.80;;;;;;5092636;28;20513;-79
2022/05/16 09:15:14;;;;;;;4.82;1.40;;;23.60;68.60;;;;;;5089949;28;20418;-78
2022/05/16 09:18:01;;;;;;;7.10;1.92;;;24.00;65.80;;;;;;5077889;28;20052;-78
2022/05/16 09:20:49;;;;;;;9.00;2.33;;;24.60;64.20;;;;;;5071657;28;20096;-79
2022/05/16 09:23:15;;;;;;;8.82;1.23;;;25.20;64.70;;;;;;5072935;28;20039;-78
2022/05/16 09:26:00;;;;;;;18.02;3.03;;;25.60;63.10;;;;;;5071846;28;20120;-79
2022/05/16 09:28:34;;;;;;;13.60;2.42;;;26.20;63.60;;;;;;5071679;28;20090;-78
2022/05/16 09:31:10;;;;;;;12.52;2.17;;;26.50;61.50;;;;;;5071861;28;20458;-79
2022/05/16 09:33:43;;;;;;;9.35;1.70;;;26.70;60.50;;;;;;5071153;28;20131;-79
2022/05/16 09:36:13;;;;;;;11.30;1.90;;;27.00;59.50;;;;;;5087011;28;20072;-79
2022/05/16 09:38:43;;;;;;;4.95;1.42;;;27.30;57.90;;;;;;5091678;28;20071;-79
2022/05/16 09:41:26;;;;;;;9.93;2.20;;;27.40;56.40;;;;;;5092013;28;20048;-78
2022/05/16 09:44:16;;;;;;;13.00;1.98;;;27.20;55.80;;;;;;5091660;28;20048;-78
2022/05/16 09:46:44;;;;;;;21.70;2.88;;;27.10;56.30;;;;;;5070436;28;20050;-78
2022/05/16 09:49:18;;;;;;;17.67;2.38;;;27.20;57.50;;;;;;5084962;28;20124;-78
2022/05/16 09:51:51;;;;;;;24.35;2.35;;;27.40;57.20;;;;;;5079888;28;20505;-78
2022/05/16 09:54:35;;;;;;;13.27;1.98;;;27.60;58.00;;;;;;5071065;28;20490;-78
2022/05/16 09:57:03;;;;;;;9.45;2.10;;;27.80;54.00;;;;;;5071537;28;20041;-78
2022/05/16 09:59:42;;;;;;;4.38;1.00;;;27.80;55.20;;;;;;5070864;28;20045;-79
2022/05/16 10:02:27;;;;;;;13.57;1.65;;;28.10;53.30;;;;;;5070678;28;20056;-79
2022/05/16 10:04:57;;;;;;;15.95;2.72;;;28.20;53.20;;;;;;5084426;28;20055;-79
2022/05/16 10:07:43;;;;;;;5.75;1.08;;;28.40;54.40;;;;;;5081435;28;20318;-78
2022/05/16 10:10:15;;;;;;;10.50;3.17;;;28.40;51.80;;;;;;5072050;28;20479;-78
2022/05/16 10:12:41;;;;;;;22.02;2.67;;;28.50;52.20;;;;;;5072172;28;20086;-79
2022/05/16 10:15:09;;;;;;;9.23;1.85;;;28.80;53.90;;;;;;5070435;28;20047;-79
2022/05/16 10:17:37;;;;;;;18.65;2.28;;;29.20;53.30;;;;;;5071099;28;20084;-78
2022/05/16 10:20:07;;;;;;;16.23;2.95;;;29.40;51.10;;;;;;5071076;28;20511;-78
2022/05/16 10:22:34;;;;;;;29.80;3.72;;;29.60;51.60;;;;;;5069952;28;20524;-79
2022/05/16 10:25:05;;;;;;;24.85;3.40;;;29.70;50.50;;;;;;5070232;28;20047;-79
2022/05/16 10:27:36;;;;;;;4.57;1.20;;;29.50;50.40;;;;;;5070855;28;20507;-80
2022/05/16 10:30:20;;;;;;;20.63;4.13;;;29.30;49.30;;;;;;5071441;28;20116;-81
2022/05/16 10:35:38;;;;;;;5.25;0.98;;;28.90;50.90;;;;;;5072865;28;20412;-80
2022/05/16 10:38:34;;;;;;;11.50;2.33;;;28.80;51.20;;;;;;5071315;28;20487;-79
2022/05/16 10:41:04;;;;;;;6.65;1.23;;;28.80;50.90;;;;;;5074200;28;20044;-79
2022/05/16 10:44:01;;;;;;;6.35;1.83;;;28.80;49.80;;;;;;5071303;28;20048;-80
2022/05/16 10:46:35;;;;;;;7.70;2.10;;;29.10;50.40;;;;;;5063548;28;20056;-79
2022/05/16 10:49:04;;;;;;;4.13;1.00;;;29.30;52.50;;;;;;5055274;28;20047;-80
2022/05/16 10:51:55;;;;;;;6.38;1.90;;;29.50;50.60;;;;;;5072407;28;20049;-79
2022/05/16 10:54:23;;;;;;;3.75;1.27;;;29.70;50.00;;;;;;5075036;28;20044;-80
2022/05/16 10:57:10;;;;;;;20.75;4.18;;;29.70;50.00;;;;;;5075212;28;20137;-80
2022/05/16 11:00:08;;;;;;;13.43;2.20;;;29.90;48.40;;;;;;5074987;28;20041;-80
2022/05/16 11:03:11;;;;;;;14.60;2.78;;;29.80;49.30;;;;;;5074697;28;20036;-80
2022/05/16 11:06:01;;;;;;;10.38;1.77;;;29.70;48.90;;;;;;5074653;28;20142;-80
2022/05/16 11:08:46;;;;;;;12.10;3.17;;;29.60;47.90;;;;;;5073154;28;20044;-80
2022/05/16 11:11:36;;;;;;;5.95;2.15;;;29.60;49.20;;;;;;5074346;28;20048;-79
2022/05/16 11:14:17;;;;;;;4.78;1.40;;;29.50;47.60;;;;;;5094899;28;20063;-81
2022/05/16 11:16:43;;;;;;;4.30;1.48;;;29.30;47.60;;;;;;5109353;28;20050;-80
2022/05/16 11:19:30;;;;;;;3.53;1.15;;;28.90;48.90;;;;;;5106346;28;20027;-80
2022/05/16 11:22:06;;;;;;;25.10;4.45;;;28.70;46.60;;;;;;5103550;28;20397;-80
2022/05/16 11:24:43;;;;;;;17.90;3.70;;;28.40;49.50;;;;;;5082362;28;20099;-79
2022/05/16 11:27:14;;;;;;;17.25;3.85;;;28.40;50.10;;;;;;5097455;28;20583;-79
2022/05/16 11:30:03;;;;;;;21.73;3.55;;;28.50;51.50;;;;;;5100260;28;20043;-79
2022/05/16 11:32:42;;;;;;;16.17;2.70;;;28.60;49.70;;;;;;5098385;28;20040;-80
2022/05/16 11:35:31;;;;;;;11.57;1.42;;;28.60;50.80;;;;;;5089561;28;20048;-79
2022/05/16 11:38:28;;;;;;;6.13;1.77;;;28.60;51.10;;;;;;5081727;28;20036;-79
2022/05/16 11:41:23;;;;;;;4.68;1.10;;;28.50;51.10;;;;;;5068344;28;20500;-79
2022/05/16 11:43:52;;;;;;;14.55;2.20;;;28.40;50.00;;;;;;5084584;28;20043;-79
2022/05/16 11:46:53;;;;;;;8.57;1.40;;;28.30;51.20;;;;;;5081664;28;20491;-79
2022/05/16 11:49:52;;;;;;;5.43;1.27;;;28.10;51.30;;;;;;5057554;28;20168;-79
2022/05/16 11:52:28;;;;;;;8.13;1.75;;;27.90;52.10;;;;;;5077025;28;20040;-79
2022/05/16 12:00:31;;;;;;;4.43;1.52;;;27.50;52.80;;;;;;5084776;28;20032;-78
2022/05/16 12:00:50;;;;;;;92.10;67.05;;;27.10;52.80;;;;;;5076568;28;20044;-79
2022/05/16 12:03:19;;;;;;;48.95;36.42;;;26.90;52.90;;;;;;5078674;28;20106;-79
2022/05/16 12:05:48;;;;;;;308.05;246.55;;;26.80;54.00;;;;;;5075155;28;20048;-79
2022/05/16 12:08:48;;;;;;;146.38;128.48;;;26.70;54.30;;;;;;5083607;28;20483;-78
2022/05/16 12:11:25;;;;;;;12.73;8.25;;;26.70;54.10;;;;;;5080526;28;20072;-78
2022/05/16 12:14:02;;;;;;;10.95;5.78;;;26.60;54.50;;;;;;5084388;28;20043;-79
2022/05/16 12:16:42;;;;;;;5.88;2.22;;;26.50;55.10;;;;;;5082156;28;20041;-79
2022/05/16 12:19:25;;;;;;;5.57;1.75;;;26.40;56.20;;;;;;5081236;28;20119;-80
2022/05/16 12:21:57;;;;;;;5.05;2.63;;;26.20;57.60;;;;;;5087608;28;20090;-80
2022/05/16 12:24:24;;;;;;;5.95;2.08;;;26.20;58.60;;;;;;5083515;28;20036;-79
2022/05/16 12:27:01;;;;;;;5.45;1.50;;;26.10;58.60;;;;;;5086727;28;20170;-80
2022/05/16 12:29:46;;;;;;;6.78;2.15;;;25.90;59.60;;;;;;5086040;28;20044;-79
2022/05/16 12:32:30;;;;;;;5.05;1.45;;;25.90;61.20;;;;;;5065393;28;20549;-80
2022/05/16 12:35:03;;;;;;;5.65;1.85;;;25.80;61.70;;;;;;5082550;28;20051;-80
2022/05/16 12:37:28;;;;;;;6.47;2.50;;;25.90;62.10;;;;;;5084290;28;20051;-79
2022/05/16 12:40:16;;;;;;;7.22;2.15;;;25.90;61.70;;;;;;5087766;28;20032;-81
2022/05/16 12:43:20;;;;;;;6.25;1.75;;;26.00;63.20;;;;;;5085929;28;20036;-81
2022/05/16 12:46:37;;;;;;;4.43;2.20;;;26.10;62.90;;;;;;5095241;28;20048;-80
2022/05/16 12:49:28;;;;;;;9.57;2.65;;;26.20;61.50;;;;;;5089441;28;20070;-79
2022/05/16 12:52:06;;;;;;;5.10;1.85;;;26.40;61.20;;;;;;5083012;28;20101;-80
2022/05/16 12:55:11;;;;;;;4.05;2.03;;;26.40;61.70;;;;;;5082785;28;20044;-80
2022/05/16 12:57:43;;;;;;;8.40;2.90;;;26.50;61.90;;;;;;5073777;28;20036;-80
2022/05/16 13:00:21;;;;;;;6.95;2.25;;;26.40;62.00;;;;;;5080636;28;20040;-79
2022/05/16 13:03:20;;;;;;;8.98;2.65;;;26.50;61.20;;;;;;5081166;28;20205;-79
2022/05/16 13:06:03;;;;;;;4.88;1.98;;;26.50;60.70;;;;;;5081795;28;20040;-79
2022/05/16 13:08:31;;;;;;;4.45;2.10;;;26.60;60.10;;;;;;5079515;28;20522;-78
2022/05/16 13:11:13;;;;;;;5.47;2.17;;;26.60;59.90;;;;;;5084608;28;20884;-79
2022/05/16 13:13:56;;;;;;;5.60;1.55;;;26.90;58.30;;;;;;5074541;28;20040;-78
2022/05/16 13:16:34;;;;;;;3.65;1.55;;;27.10;58.00;;;;;;5079822;28;20475;-79
2022/05/16 13:19:10;;;;;;;5.40;1.60;;;27.50;57.00;;;;;;5079091;28;20447;-78
2022/05/16 13:22:09;;;;;;;4.72;1.55;;;27.80;57.30;;;;;;5077528;28;20044;-79
2022/05/16 13:24:35;;;;;;;6.72;1.83;;;27.90;56.00;;;;;;5083171;28;20079;-79
2022/05/16 13:29:52;;;;;;;2.33;0.60;;;27.90;56.80;;;;;;5079615;28;20178;-79
2022/05/16 13:32:25;;;;;;;3.28;0.95;;;28.20;57.20;;;;;;5068142;28;20032;-79
2022/05/16 13:34:53;;;;;;;4.80;1.00;;;28.40;56.60;;;;;;5061938;28;20454;-79
2022/05/16 13:37:25;;;;;;;5.32;1.20;;;28.60;55.90;;;;;;5073720;28;20051;-79
2022/05/16 13:39:56;;;;;;;4.57;1.40;;;28.70;54.60;;;;;;5077969;28;20039;-79
2022/05/16 13:42:22;;;;;;;3.88;0.80;;;28.60;54.80;;;;;;5070482;28;20047;-79